createdAt,value
2019-05-23T00:03:31.123Z,11.93
2019-05-23T00:08:57.834Z,12.42
2019-05-23T00:14:10.445Z,12.13
2019-05-23T00:19:19.216Z,12.13
2019-05-23T00:24:25.047Z,12.06
2019-05-23T00:29:31.547Z,12.08
2019-05-23T00:34:38.690Z,11.96
2019-05-23T00:39:47.178Z,12.12
2019-05-23T00:44:54.206Z,12.01
2019-05-23T00:50:00.037Z,12.02
2019-05-23T00:55:08.660Z,11.98
2019-05-23T01:00:19.463Z,11.37
2019-05-23T01:05:27.073Z,11.84
2019-05-23T01:10:34.186Z,11.68
2019-05-23T01:15:44.147Z,11.79
2019-05-23T01:21:21.750Z,11.63
2019-05-23T01:26:28.925Z,11.42
2019-05-23T01:31:38.798Z,11.58
2019-05-23T01:36:46.279Z,11.88
2019-05-23T01:41:52.364Z,11.54
2019-05-23T01:46:58.212Z,11.69
2019-05-23T01:52:05.589Z,11.59
2019-05-23T01:57:11.659Z,11.67
2019-05-23T02:02:18.833Z,11.79
2019-05-23T02:07:24.973Z,11.26
2019-05-23T02:12:30.999Z,11.84
2019-05-23T02:17:39.558Z,11.66
2019-05-23T02:22:45.557Z,11.28
2019-05-23T02:27:51.258Z,11.44
2019-05-23T02:32:56.687Z,11.51
2019-05-23T02:38:21.060Z,11.81
2019-05-23T02:43:31.997Z,11.39
2019-05-23T02:48:44.026Z,11.17
2019-05-23T02:53:54.193Z,11.40
2019-05-23T02:59:22.610Z,11.41
2019-05-23T03:04:31.349Z,11.13
2019-05-23T03:09:40.153Z,11.13
2019-05-23T03:14:48.397Z,10.68
2019-05-23T03:19:59.785Z,10.94
2019-05-23T03:25:24.868Z,10.96
2019-05-23T03:30:33.875Z,10.73
2019-05-23T03:35:43.383Z,10.89
2019-05-23T03:40:50.854Z,10.89
2019-05-23T03:46:02.525Z,10.89
2019-05-23T03:51:09.510Z,11.04
2019-05-23T03:56:16.785Z,10.98
2019-05-23T04:01:43.998Z,11.17
2019-05-23T04:06:33.207Z,10.95
2019-05-23T04:11:39.213Z,10.90
2019-05-23T04:16:45.135Z,10.76
2019-05-23T04:21:56.053Z,10.87
2019-05-23T04:27:01.766Z,10.93
2019-05-23T04:32:09.314Z,11.11
2019-05-23T04:37:14.993Z,11.50
2019-05-23T04:42:20.901Z,11.31
2019-05-23T04:47:27.111Z,11.70
2019-05-23T04:52:33.427Z,11.63
2019-05-23T04:57:38.991Z,11.67
2019-05-23T05:02:46.110Z,11.29
2019-05-23T05:07:51.737Z,11.20
2019-05-23T05:13:01.599Z,11.40
2019-05-23T05:18:09.215Z,11.41
2019-05-23T05:23:15.434Z,11.43
2019-05-23T05:28:21.343Z,11.84
2019-05-23T05:33:26.905Z,11.97
2019-05-23T05:38:33.630Z,11.90
2019-05-23T05:43:40.456Z,11.93
2019-05-23T05:48:49.112Z,11.96
2019-05-23T05:53:55.054Z,12.44
2019-05-23T05:59:01.444Z,12.22
2019-05-23T06:04:08.959Z,12.41
2019-05-23T06:09:27.407Z,12.75
2019-05-23T06:14:33.109Z,12.91
2019-05-23T06:19:39.597Z,12.43
2019-05-23T06:24:50.844Z,12.92
2019-05-23T06:29:52.399Z,13.41
2019-05-23T06:34:58.556Z,12.57
2019-05-23T06:40:06.302Z,13.47
2019-05-23T06:45:16.348Z,14.03
2019-05-23T06:50:24.330Z,13.74
2019-05-23T06:55:30.202Z,12.72
2019-05-23T07:00:37.366Z,11.35
2019-05-23T07:05:43.107Z,12.21
2019-05-23T07:10:51.662Z,12.21
2019-05-23T07:15:57.163Z,12.89
2019-05-23T07:21:02.876Z,14.55
2019-05-23T07:26:08.967Z,13.13
2019-05-23T07:31:14.910Z,14.81
2019-05-23T07:36:20.587Z,14.24
2019-05-23T07:41:26.143Z,13.40
2019-05-23T07:46:32.066Z,13.26
2019-05-23T07:51:39.089Z,15.07
2019-05-23T07:56:45.434Z,14.25
2019-05-23T08:01:58.610Z,14.37
2019-05-23T08:07:06.421Z,13.54
2019-05-23T08:12:12.219Z,15.66
2019-05-23T08:17:17.958Z,14.53
2019-05-23T08:22:24.036Z,14.49
2019-05-23T08:27:30.648Z,14.77
2019-05-23T08:32:36.352Z,15.02
2019-05-23T08:37:42.313Z,15.29
2019-05-23T08:42:49.087Z,16.27
2019-05-23T08:47:54.794Z,15.10
2019-05-23T08:53:01.104Z,16.11
2019-05-23T08:58:12.861Z,14.73
2019-05-23T09:03:20.020Z,15.93
2019-05-23T09:08:27.213Z,16.48
2019-05-23T09:13:32.758Z,17.54
2019-05-23T09:18:39.595Z,16.64
2019-05-23T09:23:45.173Z,16.11
2019-05-23T09:28:51.091Z,16.51
2019-05-23T09:33:56.801Z,16.01
2019-05-23T09:39:02.832Z,17.09
2019-05-23T09:44:08.616Z,18.41
2019-05-23T09:49:14.224Z,16.93
2019-05-23T09:54:20.895Z,17.69
2019-05-23T09:59:26.614Z,16.51
2019-05-23T10:04:32.160Z,15.84
2019-05-23T10:09:37.678Z,17.92
2019-05-23T10:14:43.137Z,18.70
2019-05-23T10:19:48.662Z,19.76
2019-05-23T10:24:54.259Z,18.36
2019-05-23T10:29:59.794Z,18.28
2019-05-23T10:35:08.164Z,18.79
2019-05-23T10:40:15.858Z,18.53
2019-05-23T10:45:21.518Z,19.13
2019-05-23T10:50:41.992Z,17.83
2019-05-23T10:55:38.957Z,18.97
2019-05-23T11:00:46.886Z,18.09
2019-05-23T11:05:52.388Z,18.83
2019-05-23T11:10:58.207Z,18.81
2019-05-23T11:16:04.593Z,18.23
2019-05-23T11:21:10.656Z,18.03
2019-05-23T11:26:16.472Z,17.24
2019-05-23T11:31:22.398Z,18.66
2019-05-23T11:36:35.858Z,19.47
2019-05-23T11:41:35.356Z,19.58
2019-05-23T11:46:41.004Z,18.17
2019-05-23T11:51:46.633Z,19.23
2019-05-23T11:56:53.736Z,19.41
2019-05-23T12:02:18.691Z,18.90
2019-05-23T12:07:31.495Z,19.05
2019-05-23T12:12:37.023Z,18.16
2019-05-23T12:17:42.943Z,19.63
2019-05-23T12:22:50.019Z,18.06
2019-05-23T12:27:55.568Z,19.83
2019-05-23T12:33:01.282Z,20.56
2019-05-23T12:38:08.826Z,20.97
2019-05-23T12:43:14.621Z,21.19
2019-05-23T12:48:30.433Z,20.88
2019-05-23T12:53:36.018Z,19.87
2019-05-23T12:58:46.555Z,18.48
2019-05-23T13:03:52.212Z,18.84
2019-05-23T13:08:59.390Z,19.94
2019-05-23T13:14:05.863Z,18.99
2019-05-23T13:19:11.752Z,19.31
2019-05-23T13:24:17.661Z,18.85
2019-05-23T13:29:24.785Z,18.56
2019-05-23T13:34:30.543Z,18.74
2019-05-23T13:39:37.431Z,18.58
2019-05-23T13:44:43.086Z,18.45
2019-05-23T13:49:48.608Z,18.43
2019-05-23T13:54:54.148Z,18.18
2019-05-23T14:00:01.706Z,19.63
2019-05-23T14:05:13.569Z,19.56
2019-05-23T14:10:19.731Z,18.87
2019-05-23T14:15:29.134Z,19.67
2019-05-23T14:20:34.865Z,20.30
2019-05-23T14:25:51.214Z,19.44
2019-05-23T14:31:04.830Z,19.39
2019-05-23T14:36:32.777Z,18.67
2019-05-23T14:41:45.825Z,20.41
2019-05-23T14:47:16.105Z,20.36
2019-05-23T14:52:27.819Z,20.26
2019-05-23T14:57:34.879Z,19.70
2019-05-23T15:02:40.933Z,20.14
2019-05-23T15:07:47.624Z,20.56
2019-05-23T15:12:53.199Z,20.89
2019-05-23T15:17:58.624Z,20.66
2019-05-23T15:23:06.706Z,18.43
2019-05-23T15:28:12.496Z,19.24
2019-05-23T15:33:18.049Z,18.68
2019-05-23T15:38:23.567Z,18.49
2019-05-23T15:49:55.419Z,19.75
2019-05-23T15:55:37.012Z,19.78
2019-05-23T16:01:02.180Z,19.38
2019-05-23T16:06:11.806Z,20.18
2019-05-23T16:11:18.800Z,19.61
2019-05-23T16:16:26.243Z,19.52
2019-05-23T16:21:32.421Z,19.92
2019-05-23T16:26:38.397Z,19.98
2019-05-23T16:31:44.485Z,19.19
2019-05-23T16:36:50.130Z,19.91
2019-05-23T16:41:56.053Z,19.22
2019-05-23T16:47:01.667Z,20.11
2019-05-23T16:52:09.829Z,20.13
2019-05-23T16:57:28.097Z,20.54
2019-05-23T17:02:52.271Z,19.58
2019-05-23T17:08:23.915Z,20.24
2019-05-23T17:13:37.488Z,19.65
2019-05-23T17:18:54.524Z,19.97
2019-05-23T17:24:22.829Z,18.46
2019-05-23T17:29:38.145Z,18.09
2019-05-23T17:34:45.943Z,18.13
2019-05-23T17:39:53.513Z,17.81
2019-05-23T17:44:59.263Z,17.97
2019-05-23T17:50:07.238Z,18.16
2019-05-23T17:55:14.636Z,18.67
2019-05-23T18:00:24.349Z,18.78
2019-05-23T18:05:30.113Z,18.91
2019-05-23T18:10:44.411Z,19.00
2019-05-23T18:15:46.005Z,18.94
2019-05-23T18:20:52.706Z,19.09
2019-05-23T18:25:58.326Z,18.88
2019-05-23T18:31:13.603Z,18.65
2019-05-23T18:36:23.219Z,18.26
2019-05-23T18:41:30.505Z,18.19
2019-05-23T18:46:44.142Z,18.16
2019-05-23T18:51:59.840Z,17.68
2019-05-23T18:57:06.905Z,17.58
2019-05-23T19:02:12.710Z,17.17
2019-05-23T19:07:22.302Z,16.96
2019-05-23T19:12:38.515Z,16.96
2019-05-23T19:17:47.077Z,17.06
2019-05-23T19:22:56.663Z,16.84
2019-05-23T19:33:17.685Z,16.67
2019-05-23T19:38:23.693Z,16.68
2019-05-23T19:43:32.174Z,16.27
2019-05-23T19:48:40.010Z,16.03
2019-05-23T19:53:48.636Z,16.01
2019-05-23T19:58:55.499Z,16.01
2019-05-23T20:04:02.187Z,15.79
2019-05-23T20:09:11.227Z,15.75
2019-05-23T20:14:20.466Z,15.72
2019-05-23T20:19:27.064Z,15.43
2019-05-23T20:24:34.943Z,15.26
2019-05-23T20:29:40.926Z,15.09
2019-05-23T20:34:48.758Z,15.06
2019-05-23T20:39:54.420Z,14.98
2019-05-23T20:45:03.411Z,15.05
2019-05-23T20:50:10.931Z,14.73
2019-05-23T20:55:16.676Z,14.88
2019-05-23T21:00:30.694Z,14.49
2019-05-23T21:05:36.427Z,14.29
2019-05-23T21:10:49.714Z,14.19
2019-05-23T21:15:56.586Z,14.15
2019-05-23T21:21:02.206Z,14.23
2019-05-23T21:26:08.416Z,13.77
2019-05-23T21:31:22.787Z,13.76
2019-05-23T21:36:28.420Z,13.61
2019-05-23T21:41:33.996Z,13.51
2019-05-23T21:46:39.801Z,13.36
2019-05-23T21:51:45.336Z,13.08
2019-05-23T21:56:51.024Z,13.03
2019-05-23T22:02:04.769Z,12.87
2019-05-23T22:07:13.376Z,12.78
2019-05-23T22:12:21.383Z,12.85
2019-05-23T22:17:28.092Z,12.77
2019-05-23T22:22:33.712Z,12.80
2019-05-23T22:27:40.130Z,12.35
2019-05-23T22:32:48.896Z,12.41
2019-05-23T22:37:54.616Z,12.48
2019-05-23T22:43:00.402Z,12.35
2019-05-23T22:48:07.449Z,12.20
2019-05-23T22:53:14.541Z,12.12
2019-05-23T22:58:20.351Z,11.96
2019-05-23T23:03:25.836Z,12.09
2019-05-23T23:08:32.491Z,11.87
2019-05-23T23:13:39.320Z,11.79
2019-05-23T23:18:50.688Z,11.95
2019-05-23T23:23:56.306Z,11.66
2019-05-23T23:29:01.930Z,11.72
2019-05-23T23:34:07.566Z,11.61
2019-05-23T23:39:13.309Z,11.53
2019-05-23T23:44:20.529Z,11.62
2019-05-23T23:49:43.514Z,11.32
2019-05-23T23:55:11.256Z,11.22
